Thomson, Thomson Mcduffie County Airport (KHQU)

NameThomson Mcduffie County Airport
CityThomson
CountryUnited States
ICAOKHQU
IATA
Altitude153 m
CoordinatesGoogle Map
Live Air TrafficLiveATC.net
METARKHQU 231250Z AUTO 14006KT 1 3/4SM BR OVC004 08/08 A3029 RMK AO2 T00810079
2019-02-23 12:50:00 Wind: Southeast (140°) 3.09 m/s - Visibility: 6437.36 m - Weather: Mist - Temperature: 8 °C - Dew point: 8 °C - Humidity: 100% - Pressure: 1025.74 hPa
Statistics

The table below shows the detailed information of all flights to/from Thomson, Thomson Mcduffie County Airport (KHQU).